Time;durP1;ratioP1;P1;durP2;ratioP2;P2;SDS_P1;SDS_P2;PMS_P1;PMS_P2;Temp;Humidity;BMP_temperature;BMP_pressure;BME280_temperature;BME280_humidity;BME280_pressure;Samples;Min_cycle;Max_cycle;Signal;HPM_P1;HPM_P2
2021/09/15 00:00:13;;;;;;;24.23;11.75;;;;;;;15.18;69.45;100152.34;1781755;80;21349;-77
2021/09/15 00:03:19;;;;;;;26.00;11.53;;;;;;;15.14;69.53;100152.44;1782469;80;21338;-77
2021/09/15 00:06:24;;;;;;;26.42;13.13;;;;;;;15.10;69.66;100154.75;1781629;80;21180;-77
2021/09/15 00:09:30;;;;;;;28.50;12.53;;;;;;;15.05;69.71;100156.76;1781783;80;21294;-78
2021/09/15 00:12:36;;;;;;;36.83;13.18;;;;;;;15.01;69.86;100158.27;1780917;80;21313;-78
2021/09/15 00:15:43;;;;;;;29.90;11.70;;;;;;;14.96;69.99;100158.04;1780328;80;21203;-78
2021/09/15 00:18:48;;;;;;;38.25;12.93;;;;;;;14.93;70.20;100157.60;1781839;80;21301;-77
2021/09/15 00:21:54;;;;;;;27.67;11.88;;;;;;;14.88;70.36;100154.09;1781712;80;21233;-78
2021/09/15 00:25:01;;;;;;;28.73;11.25;;;;;;;14.85;70.56;100157.25;1780326;80;21799;-78
2021/09/15 00:28:08;;;;;;;31.05;12.93;;;;;;;14.80;70.67;100161.16;1780668;80;21378;-77
2021/09/15 00:31:14;;;;;;;26.30;13.48;;;;;;;14.75;70.85;100160.41;1782008;80;21312;-77
2021/09/15 00:34:19;;;;;;;31.42;15.75;;;;;;;14.71;70.98;100159.65;1781982;80;21296;-77
2021/09/15 00:37:25;;;;;;;39.40;15.60;;;;;;;14.64;71.30;100161.02;1782134;80;21307;-78
2021/09/15 00:40:29;;;;;;;30.52;14.03;;;;;;;14.57;71.54;100154.63;1715469;83;21843;-77
2021/09/15 00:43:35;;;;;;;43.95;16.90;;;;;;;14.51;71.75;100161.80;1714111;83;21344;-77
2021/09/15 00:46:41;;;;;;;41.77;17.45;;;;;;;14.46;72.07;100160.70;1726404;83;21233;-77
2021/09/15 00:49:47;;;;;;;41.92;16.90;;;;;;;14.40;72.33;100169.78;1716584;82;21192;-77
2021/09/15 00:52:53;;;;;;;38.45;15.72;;;;;;;14.33;72.57;100163.70;1744838;82;21308;-77
2021/09/15 00:56:00;;;;;;;39.50;15.45;;;;;;;14.29;72.82;100166.53;1743450;82;21300;-77
2021/09/15 00:59:07;;;;;;;29.75;14.90;;;;;;;14.25;73.02;100167.14;1769845;81;21339;-77
2021/09/15 01:02:14;;;;;;;39.42;14.50;;;;;;;14.21;73.15;100161.23;1728165;83;21174;-78
2021/09/15 01:05:20;;;;;;;36.28;14.43;;;;;;;14.19;73.24;100170.72;1727014;83;21388;-78
2021/09/15 01:08:25;;;;;;;32.30;12.68;;;;;;;14.14;73.36;100167.20;1727339;83;21324;-77
2021/09/15 01:11:37;;;;;;;28.45;13.13;;;;;;;14.13;73.46;100167.41;1726361;83;22045;-78
2021/09/15 01:14:53;;;;;;;25.65;12.40;;;;;;;14.10;73.59;100169.19;1727806;83;21874;-77
2021/09/15 01:18:00;;;;;;;26.50;13.10;;;;;;;14.06;73.65;100165.45;1706880;83;21315;-76
2021/09/15 01:21:14;;;;;;;31.12;13.15;;;;;;;14.04;73.80;100181.84;1674487;84;21335;-77
2021/09/15 01:24:23;;;;;;;31.10;13.78;;;;;;;14.00;73.88;100180.55;1705476;84;21332;-77
2021/09/15 01:27:35;;;;;;;34.63;13.65;;;;;;;13.97;73.99;100184.56;1670994;84;21260;-77
2021/09/15 01:30:42;;;;;;;34.53;12.53;;;;;;;13.92;74.14;100177.42;1707801;84;21858;-77
2021/09/15 01:33:50;;;;;;;31.00;13.22;;;;;;;13.88;74.27;100174.77;1706022;84;21200;-77
2021/09/15 01:36:57;;;;;;;29.48;13.00;;;;;;;13.81;74.49;100176.09;1708698;84;21720;-77
2021/09/15 01:40:04;;;;;;;34.10;14.03;;;;;;;13.78;74.64;100174.25;1695088;84;21845;-77
2021/09/15 01:43:09;;;;;;;22.73;11.48;;;;;;;13.73;74.81;100178.13;1701784;83;21182;-77
2021/09/15 01:46:15;;;;;;;27.22;12.95;;;;;;;13.69;74.94;100175.45;1701951;84;21379;-77
2021/09/15 01:49:20;;;;;;;33.58;11.55;;;;;;;13.64;75.14;100180.70;1700746;84;21258;-77
2021/09/15 01:52:19;;;;;;;26.95;11.80;;;;;;;13.61;75.29;100177.84;1725988;83;21249;-77
2021/09/15 01:55:34;;;;;;;23.83;11.28;;;;;;;13.57;75.45;100181.19;1727256;83;21883;-77
2021/09/15 01:58:56;;;;;;;23.85;10.70;;;;;;;13.52;75.62;100186.75;1725870;83;21210;-77
2021/09/15 02:02:16;;;;;;;24.70;11.97;;;;;;;13.48;75.76;100185.97;1703251;84;21742;-78
2021/09/15 02:05:22;;;;;;;24.87;11.55;;;;;;;13.45;75.95;100195.45;1703829;84;21334;-77
2021/09/15 02:08:30;;;;;;;27.85;12.35;;;;;;;13.43;76.02;100193.96;1733377;82;22582;-77
2021/09/15 02:11:37;;;;;;;25.32;11.38;;;;;;;13.40;76.17;100196.56;1702457;84;21228;-77
2021/09/15 02:14:43;;;;;;;25.27;11.85;;;;;;;13.37;76.32;100201.62;1696245;84;21398;-77
2021/09/15 02:17:49;;;;;;;26.40;12.10;;;;;;;13.32;76.38;100200.84;1732971;82;21255;-77
2021/09/15 02:20:57;;;;;;;25.80;11.45;;;;;;;13.28;76.47;100196.79;1680606;83;21193;-77
2021/09/15 02:24:21;;;;;;;29.23;12.53;;;;;;;13.24;76.60;100199.59;1748158;82;21321;-77
2021/09/15 02:27:46;;;;;;;30.02;12.03;;;;;;;13.20;76.70;100200.47;1718562;82;21242;-78
2021/09/15 02:30:54;;;;;;;25.43;11.53;;;;;;;13.16;76.79;100206.02;1744843;82;21595;-77
2021/09/15 02:34:20;;;;;;;26.48;12.15;;;;;;;13.14;76.89;100205.91;1689608;85;21808;-78
2021/09/15 02:37:33;;;;;;;25.37;12.98;;;;;;;13.12;77.02;100212.10;1698665;84;21768;-78
2021/09/15 02:40:40;;;;;;;30.43;11.45;;;;;;;13.08;77.19;100216.28;1694350;83;21530;-78
2021/09/15 02:43:54;;;;;;;29.25;12.33;;;;;;;13.03;77.32;100217.74;1747007;81;21351;-77
2021/09/15 02:47:17;;;;;;;30.20;12.55;;;;;;;13.01;77.45;100217.59;1719474;83;21293;-78
2021/09/15 02:50:38;;;;;;;26.80;11.55;;;;;;;12.98;77.59;100222.09;1742891;82;21281;-77
2021/09/15 02:53:58;;;;;;;23.45;11.22;;;;;;;12.94;77.70;100227.67;1730783;83;21336;-78
2021/09/15 02:57:05;;;;;;;30.60;11.60;;;;;;;12.88;77.84;100227.05;1716124;83;21261;-77
2021/09/15 03:00:17;;;;;;;30.95;12.50;;;;;;;12.82;77.96;100225.93;1714821;83;21261;-77
2021/09/15 03:03:26;;;;;;;28.60;12.93;;;;;;;12.78;78.15;100229.58;1735761;82;21295;-77
2021/09/15 03:06:52;;;;;;;26.82;12.90;;;;;;;12.74;78.28;100228.78;1747142;82;21315;-77
2021/09/15 03:09:59;;;;;;;29.63;12.58;;;;;;;12.71;78.44;100234.67;1746944;82;21164;-77
2021/09/15 03:13:05;;;;;;;24.40;11.33;;;;;;;12.67;78.60;100233.35;1717725;82;21298;-77
2021/09/15 03:16:10;;;;;;;25.55;11.85;;;;;;;12.62;78.76;100231.18;1745715;82;21268;-77
2021/09/15 03:19:19;;;;;;;24.05;12.40;;;;;;;12.58;78.90;100230.38;1745826;82;21197;-77
2021/09/15 03:22:24;;;;;;;31.27;12.00;;;;;;;12.50;79.10;100233.55;1746354;80;21300;-77
2021/09/15 03:25:31;;;;;;;32.05;10.93;;;;;;;12.46;79.24;100232.22;1747485;82;21308;-77
2021/09/15 03:28:37;;;;;;;33.35;11.28;;;;;;;12.43;79.48;100240.85;1746896;82;21970;-77
2021/09/15 03:31:43;;;;;;;26.35;11.15;;;;;;;12.41;79.88;100236.06;1760826;80;21264;-77
2021/09/15 03:34:49;;;;;;;22.30;10.32;;;;;;;12.41;80.36;100244.28;1749555;80;21457;-77
2021/09/15 03:37:56;;;;;;;25.30;10.48;;;;;;;12.42;80.67;100248.76;1747809;80;21657;-78
2021/09/15 03:41:02;;;;;;;22.55;9.53;;;;;;;12.43;80.88;100247.71;1747117;82;21185;-77
2021/09/15 03:44:10;;;;;;;21.30;9.18;;;;;;;12.45;81.10;100251.10;1717665;83;21280;-77
2021/09/15 03:47:16;;;;;;;26.12;9.30;;;;;;;12.50;81.09;100251.38;1756693;80;21733;-77
2021/09/15 03:50:22;;;;;;;19.12;9.25;;;;;;;12.57;81.11;100256.12;1721693;81;21280;-78
2021/09/15 03:53:28;;;;;;;20.45;9.68;;;;;;;12.63;81.03;100257.57;1737103;81;21546;-77
2021/09/15 03:56:34;;;;;;;24.12;10.82;;;;;;;12.70;80.83;100254.41;1730865;81;21283;-77
2021/09/15 03:59:42;;;;;;;21.35;10.55;;;;;;;12.77;80.50;100257.22;1738183;81;21345;-77
2021/09/15 04:02:47;;;;;;;23.22;11.05;;;;;;;12.85;80.00;100257.13;1724943;81;21218;-77
2021/09/15 04:05:55;;;;;;;19.23;9.70;;;;;;;12.91;79.51;100260.98;1717005;82;21311;-77
2021/09/15 04:09:01;;;;;;;26.23;10.65;;;;;;;12.96;79.14;100263.48;1773042;79;21237;-77
2021/09/15 04:12:09;;;;;;;25.23;10.55;;;;;;;13.00;78.85;100267.54;1779157;79;21310;-77
2021/09/15 04:15:17;;;;;;;25.72;9.90;;;;;;;13.09;78.57;100278.42;1769976;79;21210;-78
2021/09/15 04:18:23;;;;;;;24.23;10.45;;;;;;;13.15;78.29;100279.01;1766298;81;21178;-78
2021/09/15 04:21:29;;;;;;;31.00;10.48;;;;;;;13.24;78.06;100288.86;1768720;79;21288;-77
2021/09/15 04:31:11;;;;;;;21.37;9.70;;;;;;;13.33;77.79;100295.09;1776222;79;21319;-79
2021/09/15 04:31:22;;;;;;;22.42;9.55;;;;;;;13.55;77.19;100311.41;1773190;79;21177;-76
2021/09/15 04:34:25;;;;;;;21.52;8.48;;;;;;;13.68;76.92;100322.19;1775318;79;21165;-77
2021/09/15 04:37:32;;;;;;;19.20;8.40;;;;;;;13.79;76.63;100318.92;1771119;79;21293;-77
2021/09/15 04:40:40;;;;;;;24.30;9.30;;;;;;;13.92;76.00;100327.27;1683502;83;21717;-78
2021/09/15 04:43:46;;;;;;;19.37;8.15;;;;;;;14.03;75.60;100324.01;1769475;79;21284;-78
2021/09/15 04:46:52;;;;;;;17.85;8.78;;;;;;;14.16;75.09;100323.27;1780474;79;21327;-78
2021/09/15 04:49:59;;;;;;;16.50;8.63;;;;;;;14.27;74.36;100322.72;1769047;79;21209;-77
2021/09/15 04:53:04;;;;;;;20.02;8.00;;;;;;;14.39;73.84;100329.88;1773834;79;21292;-78
2021/09/15 04:56:09;;;;;;;18.55;9.10;;;;;;;14.50;73.17;100329.38;1770740;79;21355;-78
2021/09/15 04:59:14;;;;;;;17.42;9.38;;;;;;;14.57;72.76;100330.78;1769032;79;21315;-79
2021/09/15 05:02:20;;;;;;;21.87;10.35;;;;;;;14.70;72.30;100334.15;1767811;79;21547;-79
2021/09/15 05:05:26;;;;;;;23.27;10.43;;;;;;;14.80;72.00;100326.36;1773809;79;21284;-79
2021/09/15 05:08:33;;;;;;;22.60;9.35;;;;;;;14.93;71.32;100326.97;1779608;79;21499;-79
2021/09/15 05:11:39;;;;;;;24.50;10.00;;;;;;;15.04;70.77;100336.02;1780056;79;21804;-76
2021/09/15 05:14:45;;;;;;;20.02;10.20;;;;;;;15.14;70.65;100339.77;1777701;79;21583;-78
2021/09/15 05:17:50;;;;;;;17.20;8.15;;;;;;;15.27;69.58;100337.91;1771557;79;21985;-77
2021/09/15 05:20:57;;;;;;;16.30;7.97;;;;;;;15.36;68.66;100341.34;1770028;79;21238;-78
2021/09/15 05:24:03;;;;;;;15.20;8.58;;;;;;;15.44;67.67;100333.43;1774377;79;21716;-77
2021/09/15 05:27:15;;;;;;;19.73;7.70;;;;;;;15.51;67.00;100332.37;1777607;78;21299;-77
2021/09/15 05:30:19;;;;;;;27.95;8.35;;;;;;;15.62;66.05;100332.81;1777124;78;21807;-78
2021/09/15 05:33:26;;;;;;;22.70;8.50;;;;;;;15.73;65.64;100333.10;1775562;78;21555;-80
2021/09/15 05:36:32;;;;;;;20.57;7.83;;;;;;;15.85;65.17;100345.72;1777185;78;21357;-79
2021/09/15 05:39:44;;;;;;;22.70;8.60;;;;;;;15.95;64.79;100350.33;1777468;79;21209;-78
2021/09/15 05:43:10;;;;;;;15.90;6.87;;;;;;;16.05;63.70;100348.00;1768123;78;21820;-77
2021/09/15 05:46:32;;;;;;;18.60;8.85;;;;;;;16.16;63.33;100356.17;1736180;78;21234;-78
2021/09/15 05:49:47;;;;;;;17.92;7.12;;;;;;;16.27;62.75;100354.14;1748797;78;21141;-77
2021/09/15 05:52:55;;;;;;;18.20;7.12;;;;;;;16.39;62.33;100354.36;1762602;78;21157;-77
2021/09/15 05:56:03;;;;;;;17.10;6.87;;;;;;;16.51;61.28;100358.16;1717263;81;21268;-77
2021/09/15 05:59:09;;;;;;;20.65;6.75;;;;;;;16.66;60.67;100354.34;1712103;82;21609;-78
2021/09/15 06:02:14;;;;;;;18.60;6.67;;;;;;;16.80;59.71;100356.89;1715021;81;21300;-78
2021/09/15 06:05:22;;;;;;;16.23;5.80;;;;;;;16.91;58.96;100355.37;1701840;82;21813;-78
2021/09/15 06:08:26;;;;;;;13.75;5.65;;;;;;;17.01;57.49;100362.67;1692126;83;21977;-77
2021/09/15 06:11:25;;;;;;;13.53;5.12;;;;;;;17.15;55.95;100360.71;1693686;83;22294;-78
2021/09/15 06:14:19;;;;;;;10.10;4.53;;;;;;;17.26;54.98;100363.32;1717365;81;21557;-78
2021/09/15 06:17:25;;;;;;;10.18;4.17;;;;;;;17.36;51.38;100367.84;1724990;81;21170;-79
2021/09/15 06:20:30;;;;;;;10.75;4.70;;;;;;;17.44;51.21;100373.13;1706678;82;21738;-76
2021/09/15 06:23:38;;;;;;;20.00;4.62;;;;;;;17.53;49.97;100366.28;1693624;82;21571;-78
2021/09/15 06:26:44;;;;;;;20.82;4.80;;;;;;;17.62;48.63;100366.34;1720335;81;21367;-77
2021/09/15 06:29:51;;;;;;;11.08;4.05;;;;;;;17.73;48.37;100368.09;1698984;83;21331;-77
2021/09/15 06:33:09;;;;;;;16.20;4.10;;;;;;;17.84;47.54;100367.44;1721207;82;21839;-77
2021/09/15 06:36:14;;;;;;;12.20;4.62;;;;;;;17.94;45.47;100366.41;1697050;83;21707;-77
2021/09/15 06:39:20;;;;;;;14.53;5.20;;;;;;;18.00;45.99;100367.42;1697122;83;21282;-77
2021/09/15 06:42:26;;;;;;;10.40;4.90;;;;;;;18.01;46.35;100367.19;1717732;81;21347;-77
2021/09/15 06:45:31;;;;;;;8.03;4.17;;;;;;;18.02;46.08;100373.57;1718917;81;21621;-77
2021/09/15 06:48:38;;;;;;;9.80;3.62;;;;;;;18.02;45.93;100379.98;1693480;83;21204;-81
2021/09/15 06:51:44;;;;;;;6.17;3.33;;;;;;;18.06;46.27;100388.66;1669022;82;21254;-78
2021/09/15 06:54:49;;;;;;;8.28;3.08;;;;;;;18.12;45.52;100381.72;1695337;83;21208;-77
2021/09/15 06:57:56;;;;;;;7.65;3.08;;;;;;;18.18;45.34;100390.19;1722008;81;21264;-77
2021/09/15 07:01:06;;;;;;;10.72;3.15;;;;;;;18.23;45.36;100388.44;1677236;81;21240;-78
2021/09/15 07:04:12;;;;;;;11.63;2.52;;;;;;;18.29;44.17;100386.69;1722684;81;21184;-77
2021/09/15 07:07:17;;;;;;;9.08;2.40;;;;;;;18.32;43.55;100382.09;1713576;81;21374;-77
2021/09/15 07:10:22;;;;;;;7.60;2.15;;;;;;;18.34;43.26;100393.78;1717052;81;21216;-76
2021/09/15 07:13:29;;;;;;;5.37;1.98;;;;;;;18.37;42.79;100383.11;1716556;81;21338;-77
2021/09/15 07:16:36;;;;;;;9.43;2.65;;;;;;;18.41;42.88;100386.28;1715299;81;21157;-76
2021/09/15 07:19:42;;;;;;;4.70;2.30;;;;;;;18.44;43.03;100391.34;1717612;81;21670;-77
2021/09/15 07:22:48;;;;;;;7.47;2.12;;;;;;;18.51;43.07;100388.54;1715917;81;21181;-77
2021/09/15 07:25:55;;;;;;;5.17;2.12;;;;;;;18.59;42.97;100380.80;1715741;81;21200;-77
2021/09/15 07:29:00;;;;;;;5.87;2.15;;;;;;;18.68;42.62;100391.56;1714542;81;21333;-76
2021/09/15 07:32:06;;;;;;;8.20;2.00;;;;;;;18.70;41.69;100391.69;1715908;81;21187;-79
2021/09/15 07:35:15;;;;;;;7.97;2.40;;;;;;;18.75;41.89;100392.40;1715167;81;21322;-79
2021/09/15 07:38:21;;;;;;;7.92;2.27;;;;;;;18.79;41.20;100397.80;1711429;81;21156;-81
2021/09/15 07:41:27;;;;;;;5.25;1.82;;;;;;;18.85;41.73;100385.79;1719868;81;21550;-78
2021/09/15 07:44:33;;;;;;;2.80;1.80;;;;;;;18.90;41.61;100383.17;1699174;81;21160;-78
2021/09/15 07:47:38;;;;;;;8.03;2.00;;;;;;;18.92;40.87;100382.42;1673003;83;21177;-78
2021/09/15 07:50:43;;;;;;;6.40;2.30;;;;;;;18.94;40.68;100382.19;1691748;83;21378;-76
2021/09/15 07:53:48;;;;;;;9.28;2.33;;;;;;;18.95;40.82;100377.79;1693769;84;21307;-78
2021/09/15 07:56:54;;;;;;;6.92;1.65;;;;;;;18.96;40.77;100371.20;1690702;84;21330;-78
2021/09/15 07:59:59;;;;;;;5.40;1.80;;;;;;;18.98;39.92;100378.73;1715150;81;21235;-79
2021/09/15 08:03:07;;;;;;;5.87;1.52;;;;;;;18.99;39.76;100363.78;1684206;82;21260;-78
2021/09/15 08:06:12;;;;;;;6.75;2.10;;;;;;;19.08;39.05;100369.33;1690204;82;21314;-78
2021/09/15 08:09:18;;;;;;;4.75;2.08;;;;;;;19.12;37.22;100367.80;1696957;82;22587;-77
2021/09/15 08:12:23;;;;;;;6.10;2.00;;;;;;;19.12;36.27;100370.57;1716632;81;21724;-77
2021/09/15 08:15:30;;;;;;;7.42;1.80;;;;;;;19.17;34.44;100373.19;1723282;82;21338;-78
2021/09/15 08:18:38;;;;;;;3.12;1.98;;;;;;;19.15;34.20;100357.64;1720349;82;21169;-79
2021/09/15 08:21:44;;;;;;;13.35;2.08;;;;;;;19.14;32.60;100363.40;1703967;81;21420;-78
2021/09/15 08:24:51;;;;;;;4.97;1.92;;;;;;;19.12;31.32;100376.11;1658475;83;21212;-76
2021/09/15 08:28:02;;;;;;;7.97;2.05;;;;;;;19.11;32.53;100374.42;1698272;82;21189;-76
2021/09/15 08:31:09;;;;;;;5.00;1.85;;;;;;;19.12;30.61;100364.18;1720820;81;21177;-78
2021/09/15 08:34:16;;;;;;;3.20;2.02;;;;;;;19.13;29.88;100360.33;1720647;81;21169;-78
2021/09/15 08:37:21;;;;;;;5.60;2.22;;;;;;;19.14;30.66;100369.78;1718137;81;21164;-78
2021/09/15 08:40:28;;;;;;;3.62;2.00;;;;;;;19.14;30.01;100371.17;1697106;82;21152;-77
2021/09/15 08:43:36;;;;;;;8.83;1.95;;;;;;;19.14;30.28;100370.33;1700381;82;21330;-78
2021/09/15 08:46:41;;;;;;;8.30;2.42;;;;;;;19.17;31.29;100371.27;1702264;82;22111;-78
2021/09/15 08:49:46;;;;;;;11.33;2.70;;;;;;;19.19;31.19;100362.70;1693683;83;21218;-79
2021/09/15 08:52:54;;;;;;;7.08;2.52;;;;;;;19.22;30.27;100365.02;1687286;83;21535;-81
2021/09/15 08:55:59;;;;;;;4.35;2.17;;;;;;;19.25;29.70;100368.19;1698355;84;21240;-77
2021/09/15 08:59:05;;;;;;;5.03;2.55;;;;;;;19.27;29.24;100353.54;1691834;82;21440;-78
2021/09/15 09:02:19;;;;;;;11.95;2.47;;;;;;;19.28;29.10;100358.00;1695156;82;21303;-78
2021/09/15 09:05:32;;;;;;;9.20;2.20;;;;;;;19.30;29.57;100364.72;1696862;82;21358;-77
2021/09/15 09:08:40;;;;;;;4.10;2.10;;;;;;;19.31;28.89;100355.31;1694707;82;22484;-78
2021/09/15 09:11:47;;;;;;;11.57;3.00;;;;;;;19.27;29.49;100359.63;1696841;83;21355;-83
2021/09/15 09:14:53;;;;;;;8.70;3.00;;;;;;;19.27;30.37;100361.86;1723155;81;21393;-76
2021/09/15 09:17:52;;;;;;;8.13;2.85;;;;;;;19.30;30.69;100349.47;1718256;81;21314;-77
2021/09/15 09:20:59;;;;;;;7.55;2.62;;;;;;;19.34;32.44;100353.47;1719820;81;21449;-77
2021/09/15 09:24:09;;;;;;;5.42;2.47;;;;;;;19.36;31.67;100365.17;1708401;82;21287;-77
2021/09/15 09:27:15;;;;;;;6.35;1.80;;;;;;;19.39;29.81;100375.81;1705621;82;22274;-79
2021/09/15 09:30:45;;;;;;;10.48;2.40;;;;;;;19.44;28.52;100367.63;1708134;81;21185;-79
2021/09/15 09:33:50;;;;;;;12.78;2.47;;;;;;;19.47;29.52;100375.47;1708946;81;21293;-78
2021/09/15 09:37:16;;;;;;;6.25;1.70;;;;;;;19.48;30.60;100356.38;1703616;81;21257;-78
2021/09/15 09:40:23;;;;;;;4.72;1.50;;;;;;;19.50;25.44;100359.75;1706786;81;21419;-77
2021/09/15 09:43:31;;;;;;;7.97;2.00;;;;;;;19.53;25.45;100354.30;1672392;81;21260;-77
2021/09/15 09:46:41;;;;;;;12.00;2.27;;;;;;;19.57;26.96;100355.48;1706590;81;21331;-76
2021/09/15 09:50:09;;;;;;;4.72;1.62;;;;;;;19.62;27.94;100358.47;1706745;81;21273;-77
2021/09/15 09:53:20;;;;;;;6.08;1.72;;;;;;;19.65;24.75;100351.89;1708287;81;21189;-79
2021/09/15 09:56:26;;;;;;;9.15;1.70;;;;;;;19.76;23.42;100356.33;1708759;81;21823;-77
2021/09/15 09:59:32;;;;;;;6.17;1.82;;;;;;;19.82;23.57;100356.80;1707090;81;21394;-77
2021/09/15 10:02:37;;;;;;;3.15;2.10;;;;;;;19.81;24.00;100366.20;1686301;81;21237;-77
2021/09/15 10:05:44;;;;;;;2.95;1.70;;;;;;;19.78;24.37;100356.95;1683780;81;21155;-78
2021/09/15 10:09:02;;;;;;;3.22;1.47;;;;;;;19.77;22.89;100351.95;1694502;80;21219;-78
2021/09/15 10:12:09;;;;;;;5.05;1.98;;;;;;;19.78;24.02;100346.70;1724010;81;21231;-78
2021/09/15 10:15:27;;;;;;;3.75;1.92;;;;;;;19.84;23.24;100337.96;1745497;80;21288;-77
2021/09/15 10:18:34;;;;;;;2.85;1.62;;;;;;;19.93;21.42;100336.54;1689105;82;21220;-77
2021/09/15 10:21:40;;;;;;;12.25;1.72;;;;;;;19.97;19.21;100325.81;1731019;81;21185;-77
2021/09/15 10:25:06;;;;;;;2.72;1.37;;;;;;;19.99;18.01;100326.41;1725453;82;21168;-77
2021/09/15 10:28:15;;;;;;;11.18;1.42;;;;;;;20.00;19.36;100333.14;1724210;82;21309;-76
2021/09/15 10:31:20;;;;;;;4.65;1.98;;;;;;;19.99;19.53;100325.86;1723922;82;21285;-77
2021/09/15 10:34:50;;;;;;;3.22;1.60;;;;;;;20.01;19.48;100327.88;1713284;81;21200;-77
2021/09/15 10:37:56;;;;;;;14.13;1.72;;;;;;;20.05;20.42;100324.94;1728310;81;21540;-77
2021/09/15 10:41:02;;;;;;;4.30;1.60;;;;;;;20.06;21.24;100316.91;1727673;81;21186;-77
2021/09/15 10:44:21;;;;;;;4.55;2.00;;;;;;;20.08;21.57;100316.11;1725731;82;21562;-77
2021/09/15 10:47:27;;;;;;;12.95;2.00;;;;;;;20.10;20.94;100320.91;1710623;82;21572;-77
2021/09/15 10:50:43;;;;;;;6.97;1.92;;;;;;;20.13;20.76;100316.78;1724856;82;21219;-77
2021/09/15 10:53:48;;;;;;;8.05;2.02;;;;;;;20.16;20.52;100322.71;1729853;81;21257;-77
2021/09/15 10:56:54;;;;;;;6.67;1.65;;;;;;;20.17;20.70;100311.06;1743943;81;21908;-77
2021/09/15 11:00:15;;;;;;;3.42;1.60;;;;;;;20.21;19.98;100292.84;1747815;81;21334;-77
2021/09/15 11:08:00;;;;;;;5.20;1.82;;;;;;;20.31;20.34;100301.41;1740846;80;21223;-76
2021/09/15 11:11:15;;;;;;;5.60;1.72;;;;;;;20.34;20.17;100309.27;1726678;80;21204;-80
2021/09/15 11:14:21;;;;;;;5.33;1.60;;;;;;;20.39;19.42;100299.67;1713680;81;21236;-79
2021/09/15 11:17:30;;;;;;;5.72;1.75;;;;;;;20.45;18.70;100313.69;1688904;82;21165;-78
2021/09/15 11:20:38;;;;;;;5.70;1.42;;;;;;;20.46;18.56;100312.04;1721481;81;21200;-79
2021/09/15 11:23:44;;;;;;;3.90;1.70;;;;;;;20.45;18.61;100302.57;1689612;82;21162;-77
2021/09/15 11:26:55;;;;;;;8.88;2.20;;;;;;;20.45;18.62;100303.41;1714040;81;21194;-77
2021/09/15 11:30:03;;;;;;;8.43;2.17;;;;;;;20.46;18.13;100296.77;1669295;84;22193;-78
2021/09/15 11:33:09;;;;;;;5.70;1.40;;;;;;;20.45;18.43;100297.86;1691035;82;21178;-77
2021/09/15 11:36:19;;;;;;;7.12;1.85;;;;;;;20.48;19.20;100291.86;1672217;82;21222;-78
2021/09/15 11:39:29;;;;;;;4.55;1.57;;;;;;;20.52;17.72;100290.84;1630355;83;22246;-77
2021/09/15 11:42:37;;;;;;;4.35;1.80;;;;;;;20.54;17.81;100278.92;1698810;81;21315;-78
2021/09/15 11:45:43;;;;;;;8.20;1.75;;;;;;;20.52;18.40;100284.73;1694559;82;21193;-78
2021/09/15 11:48:49;;;;;;;5.28;1.32;;;;;;;20.53;18.14;100276.70;1698137;81;22537;-78
2021/09/15 11:51:55;;;;;;;2.98;1.52;;;;;;;20.57;19.26;100261.23;1697530;81;21309;-78
2021/09/15 11:55:11;;;;;;;3.58;1.45;;;;;;;20.64;17.98;100266.65;1717865;81;21315;-78
2021/09/15 11:58:24;;;;;;;5.35;1.52;;;;;;;20.66;17.99;100264.49;1697639;81;21172;-80
2021/09/15 12:01:41;;;;;;;13.83;1.70;;;;;;;20.68;17.58;100247.02;1668792;84;21373;-78
2021/09/15 12:04:51;;;;;;;2.55;1.42;;;;;;;20.68;18.82;100243.69;1692177;83;21672;-78
2021/09/15 12:11:16;;;;;;;1.90;1.20;;;;;;;20.72;19.73;100240.43;1710129;81;21250;-76
2021/09/15 12:14:25;;;;;;;2.25;1.50;;;;;;;20.68;19.13;100240.91;1721192;81;21448;-78
2021/09/15 12:17:34;;;;;;;4.60;1.42;;;;;;;20.65;19.53;100242.81;1712769;81;21173;-77
2021/09/15 12:20:54;;;;;;;5.58;1.52;;;;;;;20.62;20.14;100236.34;1710713;83;21343;-78
2021/09/15 12:24:07;;;;;;;2.70;1.27;;;;;;;20.61;20.13;100229.64;1700635;81;21177;-77
2021/09/15 12:27:24;;;;;;;6.22;1.40;;;;;;;20.58;20.46;100221.78;1707860;81;21182;-77
2021/09/15 12:30:31;;;;;;;7.42;1.67;;;;;;;20.54;20.95;100220.58;1721546;83;21209;-77
2021/09/15 12:33:47;;;;;;;11.25;1.52;;;;;;;20.57;21.09;100217.33;1699561;83;21756;-78
2021/09/15 12:36:52;;;;;;;12.30;1.60;;;;;;;20.60;21.39;100217.66;1712408;83;21221;-77
2021/09/15 12:40:06;;;;;;;4.03;1.25;;;;;;;20.63;21.45;100218.57;1710496;83;21216;-76
2021/09/15 12:43:16;;;;;;;6.25;1.60;;;;;;;20.68;20.56;100224.78;1714964;83;21173;-77
2021/09/15 12:46:33;;;;;;;4.75;1.37;;;;;;;20.67;21.56;100212.83;1710619;83;21152;-77
2021/09/15 12:49:46;;;;;;;8.18;1.70;;;;;;;20.64;21.70;100207.75;1706553;83;21304;-77
2021/09/15 12:52:55;;;;;;;3.05;1.32;;;;;;;20.63;21.73;100204.67;1690326;83;21185;-76
2021/09/15 12:55:59;;;;;;;9.55;1.37;;;;;;;20.62;22.23;100207.16;1708504;81;21218;-76
2021/09/15 12:59:07;;;;;;;8.70;1.90;;;;;;;20.60;22.04;100202.38;1707380;83;21171;-77
2021/09/15 13:02:37;;;;;;;13.13;2.65;;;;;;;20.56;21.59;100208.15;1711151;83;21307;-76
2021/09/15 13:05:51;;;;;;;6.12;1.55;;;;;;;20.53;21.15;100198.06;1702607;82;21383;-77
2021/09/15 13:09:01;;;;;;;11.20;2.30;;;;;;;20.54;21.78;100203.91;1691057;83;21209;-77
2021/09/15 13:12:11;;;;;;;4.92;1.87;;;;;;;20.53;22.01;100190.56;1692178;82;21225;-77
2021/09/15 13:15:25;;;;;;;5.03;2.12;;;;;;;20.52;22.23;100191.66;1763515;79;21796;-77
2021/09/15 13:18:49;;;;;;;13.60;2.90;;;;;;;20.51;21.93;100190.50;1710896;82;21319;-78
2021/09/15 13:22:01;;;;;;;6.78;1.42;;;;;;;20.49;22.40;100184.36;1769309;79;21741;-77
2021/09/15 13:25:13;;;;;;;14.05;1.87;;;;;;;20.49;22.25;100178.80;1768721;79;21295;-77
2021/09/15 13:28:21;;;;;;;5.60;1.85;;;;;;;20.49;22.32;100178.25;1771915;79;21267;-78
2021/09/15 13:31:27;;;;;;;7.15;1.87;;;;;;;20.49;22.50;100175.47;1774174;79;21256;-78
2021/09/15 13:34:33;;;;;;;7.22;2.12;;;;;;;20.47;22.14;100174.88;1767536;79;21577;-78
2021/09/15 13:37:38;;;;;;;13.45;2.40;;;;;;;20.47;21.97;100172.63;1719655;82;21323;-78
2021/09/15 13:40:45;;;;;;;7.37;1.80;;;;;;;20.44;22.22;100176.72;1768062;79;21378;-78
2021/09/15 13:43:49;;;;;;;6.25;1.72;;;;;;;20.39;22.74;100176.06;1770462;79;21312;-77
2021/09/15 13:46:55;;;;;;;3.50;1.87;;;;;;;20.35;23.06;100175.41;1769553;79;22366;-78
2021/09/15 13:50:00;;;;;;;18.70;2.00;;;;;;;20.33;23.21;100178.44;1765944;81;21316;-77
2021/09/15 13:53:06;;;;;;;5.55;1.95;;;;;;;20.31;23.44;100167.26;1701901;84;21343;-78
2021/09/15 13:56:12;;;;;;;5.37;1.65;;;;;;;20.31;23.39;100156.14;1767463;81;21224;-77
2021/09/15 13:59:18;;;;;;;2.92;1.98;;;;;;;20.27;23.24;100167.44;1702776;84;21327;-77
2021/09/15 14:02:25;;;;;;;17.87;2.10;;;;;;;20.23;23.50;100161.55;1768648;81;21752;-77
2021/09/15 14:05:31;;;;;;;7.83;2.87;;;;;;;20.23;23.38;100167.62;1770323;81;21257;-77
2021/09/15 14:08:36;;;;;;;4.78;2.40;;;;;;;20.21;23.09;100167.88;1703862;84;21209;-78
2021/09/15 14:11:43;;;;;;;10.15;1.95;;;;;;;20.19;23.19;100170.61;1767294;81;21212;-77
2021/09/15 14:14:48;;;;;;;10.95;1.92;;;;;;;20.16;23.19;100174.16;1766629;81;21208;-78
2021/09/15 14:17:54;;;;;;;10.88;2.58;;;;;;;20.13;23.49;100181.56;1767943;81;21796;-77
2021/09/15 14:21:01;;;;;;;13.32;2.08;;;;;;;20.12;23.53;100176.27;1702035;84;21205;-77
2021/09/15 14:24:06;;;;;;;4.78;2.10;;;;;;;20.08;23.49;100182.84;1769606;81;21303;-77
2021/09/15 14:27:12;;;;;;;5.12;1.82;;;;;;;20.05;23.32;100179.73;1768246;81;21327;-78
2021/09/15 14:30:18;;;;;;;6.35;2.00;;;;;;;19.99;23.67;100177.34;1769518;81;21181;-77
2021/09/15 14:33:24;;;;;;;7.42;2.08;;;;;;;19.95;23.39;100183.11;1703741;84;21316;-77
2021/09/15 14:36:28;;;;;;;7.03;2.00;;;;;;;19.89;23.50;100181.27;1769598;81;21233;-77
2021/09/15 14:39:35;;;;;;;9.95;2.12;;;;;;;19.83;23.51;100187.25;1769563;81;21300;-77